sensor_id;sensor_type;location;lat;lon;timestamp;P1;durP1;ratioP1;P2;durP2;ratioP2
14139;SDS011;7150;53.514;9.988;2023-02-05T00:01:25;4.13;;;2.03;;
14139;SDS011;7150;53.514;9.988;2023-02-05T00:03:50;3.57;;;2.00;;
14139;SDS011;7150;53.514;9.988;2023-02-05T00:06:16;2.60;;;1.90;;
14139;SDS011;7150;53.514;9.988;2023-02-05T00:08:41;5.23;;;2.37;;
14139;SDS011;7150;53.514;9.988;2023-02-05T00:11:07;2.97;;;1.90;;
14139;SDS011;7150;53.514;9.988;2023-02-05T00:13:36;2.73;;;1.87;;
14139;SDS011;7150;53.514;9.988;2023-02-05T00:16:10;3.17;;;1.73;;
14139;SDS011;7150;53.514;9.988;2023-02-05T00:18:37;4.47;;;2.38;;
14139;SDS011;7150;53.514;9.988;2023-02-05T00:21:03;4.07;;;2.40;;
14139;SDS011;7150;53.514;9.988;2023-02-05T00:23:29;3.90;;;2.00;;
14139;SDS011;7150;53.514;9.988;2023-02-05T00:25:55;3.83;;;2.10;;
14139;SDS011;7150;53.514;9.988;2023-02-05T00:28:21;2.17;;;1.87;;
14139;SDS011;7150;53.514;9.988;2023-02-05T00:30:46;3.20;;;2.03;;
14139;SDS011;7150;53.514;9.988;2023-02-05T00:33:12;3.13;;;1.93;;
14139;SDS011;7150;53.514;9.988;2023-02-05T00:35:37;2.83;;;2.07;;
14139;SDS011;7150;53.514;9.988;2023-02-05T00:38:03;4.53;;;1.80;;
14139;SDS011;7150;53.514;9.988;2023-02-05T00:40:28;3.03;;;1.87;;
14139;SDS011;7150;53.514;9.988;2023-02-05T00:42:54;3.73;;;2.17;;
14139;SDS011;7150;53.514;9.988;2023-02-05T00:45:19;3.77;;;2.10;;
14139;SDS011;7150;53.514;9.988;2023-02-05T00:47:45;3.47;;;1.90;;
14139;SDS011;7150;53.514;9.988;2023-02-05T00:50:10;2.77;;;1.77;;
14139;SDS011;7150;53.514;9.988;2023-02-05T00:52:35;2.77;;;1.70;;
14139;SDS011;7150;53.514;9.988;2023-02-05T00:55:01;2.47;;;2.17;;
14139;SDS011;7150;53.514;9.988;2023-02-05T00:57:26;4.83;;;2.30;;
14139;SDS011;7150;53.514;9.988;2023-02-05T00:59:52;3.90;;;2.00;;
14139;SDS011;7150;53.514;9.988;2023-02-05T01:02:18;3.13;;;1.90;;
14139;SDS011;7150;53.514;9.988;2023-02-05T01:04:49;2.83;;;1.77;;
14139;SDS011;7150;53.514;9.988;2023-02-05T01:07:16;3.53;;;1.87;;
14139;SDS011;7150;53.514;9.988;2023-02-05T01:09:42;2.60;;;1.97;;
14139;SDS011;7150;53.514;9.988;2023-02-05T01:12:08;3.07;;;2.03;;
14139;SDS011;7150;53.514;9.988;2023-02-05T01:14:34;2.03;;;1.80;;
14139;SDS011;7150;53.514;9.988;2023-02-05T01:16:59;3.50;;;1.87;;
14139;SDS011;7150;53.514;9.988;2023-02-05T01:19:25;3.77;;;2.10;;
14139;SDS011;7150;53.514;9.988;2023-02-05T01:21:50;3.77;;;1.70;;
14139;SDS011;7150;53.514;9.988;2023-02-05T01:24:16;3.70;;;1.90;;
14139;SDS011;7150;53.514;9.988;2023-02-05T01:26:41;2.43;;;1.90;;
14139;SDS011;7150;53.514;9.988;2023-02-05T01:29:07;2.37;;;1.57;;
14139;SDS011;7150;53.514;9.988;2023-02-05T01:31:32;1.90;;;1.50;;
14139;SDS011;7150;53.514;9.988;2023-02-05T01:33:58;5.00;;;1.90;;
14139;SDS011;7150;53.514;9.988;2023-02-05T01:36:23;3.87;;;2.07;;
14139;SDS011;7150;53.514;9.988;2023-02-05T01:38:49;2.10;;;1.57;;
14139;SDS011;7150;53.514;9.988;2023-02-05T01:41:16;3.47;;;1.73;;
14139;SDS011;7150;53.514;9.988;2023-02-05T01:44:02;2.70;;;2.03;;
14139;SDS011;7150;53.514;9.988;2023-02-05T01:46:28;2.53;;;1.73;;
14139;SDS011;7150;53.514;9.988;2023-02-05T01:48:55;2.27;;;1.83;;
14139;SDS011;7150;53.514;9.988;2023-02-05T01:51:22;2.83;;;1.97;;
14139;SDS011;7150;53.514;9.988;2023-02-05T01:53:50;3.57;;;1.77;;
14139;SDS011;7150;53.514;9.988;2023-02-05T01:56:18;3.60;;;1.83;;
14139;SDS011;7150;53.514;9.988;2023-02-05T01:58:54;2.77;;;1.50;;
14139;SDS011;7150;53.514;9.988;2023-02-05T02:01:23;4.47;;;2.07;;
14139;SDS011;7150;53.514;9.988;2023-02-05T02:03:50;2.83;;;1.50;;
14139;SDS011;7150;53.514;9.988;2023-02-05T02:06:18;3.90;;;1.40;;
14139;SDS011;7150;53.514;9.988;2023-02-05T02:08:44;2.87;;;1.57;;
14139;SDS011;7150;53.514;9.988;2023-02-05T02:11:10;2.63;;;1.73;;
14139;SDS011;7150;53.514;9.988;2023-02-05T02:13:41;2.63;;;1.87;;
14139;SDS011;7150;53.514;9.988;2023-02-05T02:16:08;3.47;;;1.73;;
14139;SDS011;7150;53.514;9.988;2023-02-05T02:18:34;2.57;;;1.60;;
14139;SDS011;7150;53.514;9.988;2023-02-05T02:23:59;3.50;;;1.60;;
14139;SDS011;7150;53.514;9.988;2023-02-05T02:29:18;3.37;;;1.80;;
14139;SDS011;7150;53.514;9.988;2023-02-05T02:31:55;3.03;;;1.77;;
14139;SDS011;7150;53.514;9.988;2023-02-05T02:34:36;6.83;;;1.90;;
14139;SDS011;7150;53.514;9.988;2023-02-05T02:37:10;3.83;;;2.07;;
14139;SDS011;7150;53.514;9.988;2023-02-05T02:39:43;2.37;;;1.73;;
14139;SDS011;7150;53.514;9.988;2023-02-05T02:42:24;2.83;;;1.70;;
14139;SDS011;7150;53.514;9.988;2023-02-05T02:44:58;2.73;;;1.70;;
14139;SDS011;7150;53.514;9.988;2023-02-05T02:47:25;2.50;;;1.80;;
14139;SDS011;7150;53.514;9.988;2023-02-05T02:49:56;2.50;;;1.80;;
14139;SDS011;7150;53.514;9.988;2023-02-05T02:52:25;2.07;;;1.33;;
14139;SDS011;7150;53.514;9.988;2023-02-05T02:54:55;5.07;;;1.70;;
14139;SDS011;7150;53.514;9.988;2023-02-05T02:57:24;2.17;;;1.90;;
14139;SDS011;7150;53.514;9.988;2023-02-05T02:59:52;4.70;;;2.17;;
14139;SDS011;7150;53.514;9.988;2023-02-05T03:02:20;2.20;;;1.60;;
14139;SDS011;7150;53.514;9.988;2023-02-05T03:04:54;2.50;;;1.90;;
14139;SDS011;7150;53.514;9.988;2023-02-05T03:09:58;2.00;;;1.57;;
14139;SDS011;7150;53.514;9.988;2023-02-05T03:12:30;2.10;;;1.70;;
14139;SDS011;7150;53.514;9.988;2023-02-05T03:14:56;2.63;;;1.80;;
14139;SDS011;7150;53.514;9.988;2023-02-05T03:17:22;2.03;;;1.70;;
14139;SDS011;7150;53.514;9.988;2023-02-05T03:19:55;3.13;;;1.70;;
14139;SDS011;7150;53.514;9.988;2023-02-05T03:22:24;1.83;;;1.40;;
14139;SDS011;7150;53.514;9.988;2023-02-05T03:24:50;2.20;;;1.50;;
14139;SDS011;7150;53.514;9.988;2023-02-05T03:27:16;2.63;;;1.53;;
14139;SDS011;7150;53.514;9.988;2023-02-05T03:29:41;3.30;;;1.63;;
14139;SDS011;7150;53.514;9.988;2023-02-05T03:34:52;2.93;;;1.90;;
14139;SDS011;7150;53.514;9.988;2023-02-05T03:40:13;2.70;;;1.63;;
14139;SDS011;7150;53.514;9.988;2023-02-05T03:42:53;2.27;;;1.30;;
14139;SDS011;7150;53.514;9.988;2023-02-05T03:45:31;3.40;;;1.87;;
14139;SDS011;7150;53.514;9.988;2023-02-05T03:53:35;2.97;;;1.60;;
14139;SDS011;7150;53.514;9.988;2023-02-05T03:56:22;3.40;;;1.57;;
14139;SDS011;7150;53.514;9.988;2023-02-05T03:58:51;2.10;;;1.53;;
14139;SDS011;7150;53.514;9.988;2023-02-05T04:01:19;2.30;;;1.70;;
14139;SDS011;7150;53.514;9.988;2023-02-05T04:03:46;2.90;;;1.70;;
14139;SDS011;7150;53.514;9.988;2023-02-05T04:06:12;3.40;;;1.90;;
14139;SDS011;7150;53.514;9.988;2023-02-05T04:08:38;3.13;;;1.80;;
14139;SDS011;7150;53.514;9.988;2023-02-05T04:11:03;2.70;;;1.80;;
14139;SDS011;7150;53.514;9.988;2023-02-05T04:13:29;2.33;;;1.63;;
14139;SDS011;7150;53.514;9.988;2023-02-05T04:15:54;4.13;;;1.80;;
14139;SDS011;7150;53.514;9.988;2023-02-05T04:18:20;2.43;;;1.70;;
14139;SDS011;7150;53.514;9.988;2023-02-05T04:20:45;3.10;;;1.40;;
14139;SDS011;7150;53.514;9.988;2023-02-05T04:23:11;3.53;;;1.90;;
14139;SDS011;7150;53.514;9.988;2023-02-05T04:25:36;2.17;;;1.83;;
14139;SDS011;7150;53.514;9.988;2023-02-05T04:28:03;3.37;;;1.60;;
14139;SDS011;7150;53.514;9.988;2023-02-05T04:30:29;3.30;;;1.90;;
14139;SDS011;7150;53.514;9.988;2023-02-05T04:32:55;3.57;;;1.70;;
14139;SDS011;7150;53.514;9.988;2023-02-05T04:35:21;2.33;;;1.60;;
14139;SDS011;7150;53.514;9.988;2023-02-05T04:37:46;2.07;;;1.67;;
14139;SDS011;7150;53.514;9.988;2023-02-05T04:40:12;2.77;;;1.87;;
14139;SDS011;7150;53.514;9.988;2023-02-05T04:42:38;2.30;;;1.57;;
14139;SDS011;7150;53.514;9.988;2023-02-05T04:45:03;3.03;;;1.90;;
14139;SDS011;7150;53.514;9.988;2023-02-05T04:47:29;1.80;;;1.60;;
14139;SDS011;7150;53.514;9.988;2023-02-05T04:49:55;2.67;;;1.73;;
14139;SDS011;7150;53.514;9.988;2023-02-05T04:52:21;2.67;;;1.57;;
14139;SDS011;7150;53.514;9.988;2023-02-05T04:54:47;3.07;;;1.80;;
14139;SDS011;7150;53.514;9.988;2023-02-05T04:57:12;2.97;;;1.67;;
14139;SDS011;7150;53.514;9.988;2023-02-05T04:59:38;1.90;;;1.50;;
14139;SDS011;7150;53.514;9.988;2023-02-05T05:02:03;3.37;;;1.70;;
14139;SDS011;7150;53.514;9.988;2023-02-05T05:04:29;2.50;;;1.70;;
14139;SDS011;7150;53.514;9.988;2023-02-05T05:06:54;2.13;;;1.50;;
14139;SDS011;7150;53.514;9.988;2023-02-05T05:09:20;2.27;;;1.53;;
14139;SDS011;7150;53.514;9.988;2023-02-05T05:11:48;4.00;;;1.90;;
14139;SDS011;7150;53.514;9.988;2023-02-05T05:14:15;1.83;;;1.47;;
14139;SDS011;7150;53.514;9.988;2023-02-05T05:16:40;2.60;;;1.70;;
14139;SDS011;7150;53.514;9.988;2023-02-05T05:19:05;2.83;;;1.53;;
14139;SDS011;7150;53.514;9.988;2023-02-05T05:21:31;2.37;;;1.40;;
14139;SDS011;7150;53.514;9.988;2023-02-05T05:23:56;2.47;;;1.70;;
14139;SDS011;7150;53.514;9.988;2023-02-05T05:26:22;2.10;;;1.40;;
14139;SDS011;7150;53.514;9.988;2023-02-05T05:28:51;2.97;;;1.83;;
14139;SDS011;7150;53.514;9.988;2023-02-05T05:31:20;3.40;;;1.90;;
14139;SDS011;7150;53.514;9.988;2023-02-05T05:33:46;3.43;;;1.87;;
14139;SDS011;7150;53.514;9.988;2023-02-05T05:36:12;2.07;;;1.77;;
14139;SDS011;7150;53.514;9.988;2023-02-05T05:38:38;3.53;;;1.70;;
14139;SDS011;7150;53.514;9.988;2023-02-05T05:41:04;1.90;;;1.50;;
14139;SDS011;7150;53.514;9.988;2023-02-05T05:43:48;3.47;;;1.60;;
14139;SDS011;7150;53.514;9.988;2023-02-05T05:46:20;2.57;;;1.87;;
14139;SDS011;7150;53.514;9.988;2023-02-05T05:48:48;2.67;;;1.63;;
14139;SDS011;7150;53.514;9.988;2023-02-05T05:51:24;2.37;;;1.90;;
14139;SDS011;7150;53.514;9.988;2023-02-05T05:53:51;2.13;;;1.70;;
14139;SDS011;7150;53.514;9.988;2023-02-05T05:56:17;2.53;;;1.80;;
14139;SDS011;7150;53.514;9.988;2023-02-05T05:58:43;3.63;;;1.90;;
14139;SDS011;7150;53.514;9.988;2023-02-05T06:01:09;4.33;;;2.17;;
14139;SDS011;7150;53.514;9.988;2023-02-05T06:03:36;3.57;;;1.97;;
14139;SDS011;7150;53.514;9.988;2023-02-05T06:06:03;2.87;;;2.10;;
14139;SDS011;7150;53.514;9.988;2023-02-05T06:08:30;2.40;;;1.67;;
14139;SDS011;7150;53.514;9.988;2023-02-05T06:10:56;2.60;;;1.90;;
14139;SDS011;7150;53.514;9.988;2023-02-05T06:13:21;3.10;;;1.60;;
14139;SDS011;7150;53.514;9.988;2023-02-05T06:15:47;4.07;;;1.80;;
14139;SDS011;7150;53.514;9.988;2023-02-05T06:18:13;2.83;;;2.10;;
14139;SDS011;7150;53.514;9.988;2023-02-05T06:20:42;3.93;;;1.87;;
14139;SDS011;7150;53.514;9.988;2023-02-05T06:23:08;3.47;;;2.27;;
14139;SDS011;7150;53.514;9.988;2023-02-05T06:25:33;3.13;;;1.90;;
14139;SDS011;7150;53.514;9.988;2023-02-05T06:27:59;3.73;;;2.07;;
14139;SDS011;7150;53.514;9.988;2023-02-05T06:30:25;3.23;;;1.80;;
14139;SDS011;7150;53.514;9.988;2023-02-05T06:32:50;3.63;;;1.87;;
14139;SDS011;7150;53.514;9.988;2023-02-05T06:35:16;3.73;;;1.97;;
14139;SDS011;7150;53.514;9.988;2023-02-05T06:37:41;3.77;;;2.20;;
14139;SDS011;7150;53.514;9.988;2023-02-05T06:40:07;3.83;;;1.87;;
14139;SDS011;7150;53.514;9.988;2023-02-05T06:42:33;2.10;;;1.70;;
14139;SDS011;7150;53.514;9.988;2023-02-05T06:44:59;3.20;;;1.90;;
14139;SDS011;7150;53.514;9.988;2023-02-05T06:47:24;2.53;;;1.97;;
14139;SDS011;7150;53.514;9.988;2023-02-05T06:49:50;3.23;;;2.13;;
14139;SDS011;7150;53.514;9.988;2023-02-05T06:52:15;3.00;;;2.00;;
14139;SDS011;7150;53.514;9.988;2023-02-05T06:54:41;3.00;;;2.00;;
14139;SDS011;7150;53.514;9.988;2023-02-05T06:57:08;4.10;;;2.10;;
14139;SDS011;7150;53.514;9.988;2023-02-05T06:59:34;2.30;;;1.70;;
14139;SDS011;7150;53.514;9.988;2023-02-05T07:01:59;2.27;;;1.50;;
14139;SDS011;7150;53.514;9.988;2023-02-05T07:04:25;3.00;;;2.13;;
14139;SDS011;7150;53.514;9.988;2023-02-05T07:06:52;2.37;;;1.60;;
14139;SDS011;7150;53.514;9.988;2023-02-05T07:09:18;3.10;;;2.10;;
14139;SDS011;7150;53.514;9.988;2023-02-05T07:11:45;3.60;;;2.10;;
14139;SDS011;7150;53.514;9.988;2023-02-05T07:14:10;3.13;;;2.07;;
14139;SDS011;7150;53.514;9.988;2023-02-05T07:16:36;3.63;;;2.27;;
14139;SDS011;7150;53.514;9.988;2023-02-05T07:19:01;4.87;;;2.10;;
14139;SDS011;7150;53.514;9.988;2023-02-05T07:21:27;3.00;;;2.00;;
14139;SDS011;7150;53.514;9.988;2023-02-05T07:23:53;3.50;;;2.17;;
14139;SDS011;7150;53.514;9.988;2023-02-05T07:26:18;4.27;;;2.10;;
14139;SDS011;7150;53.514;9.988;2023-02-05T07:28:43;3.37;;;2.10;;
14139;SDS011;7150;53.514;9.988;2023-02-05T07:31:10;3.37;;;2.03;;
14139;SDS011;7150;53.514;9.988;2023-02-05T07:33:42;3.60;;;2.20;;
14139;SDS011;7150;53.514;9.988;2023-02-05T07:36:09;4.20;;;2.47;;
14139;SDS011;7150;53.514;9.988;2023-02-05T07:38:37;2.80;;;1.73;;
14139;SDS011;7150;53.514;9.988;2023-02-05T07:41:07;4.23;;;1.90;;
14139;SDS011;7150;53.514;9.988;2023-02-05T07:43:34;4.50;;;2.00;;
14139;SDS011;7150;53.514;9.988;2023-02-05T07:46:01;2.97;;;2.20;;
14139;SDS011;7150;53.514;9.988;2023-02-05T07:48:28;4.00;;;2.20;;
14139;SDS011;7150;53.514;9.988;2023-02-05T07:50:53;5.33;;;2.60;;
14139;SDS011;7150;53.514;9.988;2023-02-05T07:53:19;2.23;;;1.63;;
14139;SDS011;7150;53.514;9.988;2023-02-05T07:55:45;2.63;;;1.77;;
14139;SDS011;7150;53.514;9.988;2023-02-05T07:58:10;4.27;;;2.30;;
14139;SDS011;7150;53.514;9.988;2023-02-05T08:00:36;3.53;;;2.10;;
14139;SDS011;7150;53.514;9.988;2023-02-05T08:03:02;5.63;;;3.53;;
14139;SDS011;7150;53.514;9.988;2023-02-05T08:05:27;3.17;;;2.23;;
14139;SDS011;7150;53.514;9.988;2023-02-05T08:07:53;3.60;;;2.03;;
14139;SDS011;7150;53.514;9.988;2023-02-05T08:10:19;3.83;;;2.30;;
14139;SDS011;7150;53.514;9.988;2023-02-05T08:12:44;2.80;;;2.13;;
14139;SDS011;7150;53.514;9.988;2023-02-05T08:15:10;5.97;;;2.47;;
14139;SDS011;7150;53.514;9.988;2023-02-05T08:17:35;4.30;;;2.20;;
14139;SDS011;7150;53.514;9.988;2023-02-05T08:20:01;2.70;;;1.80;;
14139;SDS011;7150;53.514;9.988;2023-02-05T08:22:31;4.27;;;2.23;;
14139;SDS011;7150;53.514;9.988;2023-02-05T08:24:59;2.83;;;1.93;;
14139;SDS011;7150;53.514;9.988;2023-02-05T08:27:25;3.07;;;2.50;;
14139;SDS011;7150;53.514;9.988;2023-02-05T08:29:51;3.33;;;2.30;;
14139;SDS011;7150;53.514;9.988;2023-02-05T08:32:16;5.40;;;2.30;;
14139;SDS011;7150;53.514;9.988;2023-02-05T08:34:42;3.63;;;2.40;;
14139;SDS011;7150;53.514;9.988;2023-02-05T08:37:08;4.20;;;2.30;;
14139;SDS011;7150;53.514;9.988;2023-02-05T08:39:33;6.37;;;2.20;;
14139;SDS011;7150;53.514;9.988;2023-02-05T08:41:59;3.40;;;2.57;;
14139;SDS011;7150;53.514;9.988;2023-02-05T08:44:26;4.70;;;2.97;;
14139;SDS011;7150;53.514;9.988;2023-02-05T08:46:52;3.53;;;2.50;;
14139;SDS011;7150;53.514;9.988;2023-02-05T08:49:18;3.87;;;2.47;;
14139;SDS011;7150;53.514;9.988;2023-02-05T08:51:43;4.73;;;2.07;;
14139;SDS011;7150;53.514;9.988;2023-02-05T08:54:09;4.30;;;2.70;;
14139;SDS011;7150;53.514;9.988;2023-02-05T08:56:37;4.70;;;2.57;;
14139;SDS011;7150;53.514;9.988;2023-02-05T08:59:04;5.43;;;2.20;;
14139;SDS011;7150;53.514;9.988;2023-02-05T09:01:30;5.30;;;2.40;;
14139;SDS011;7150;53.514;9.988;2023-02-05T09:03:55;4.53;;;2.50;;
14139;SDS011;7150;53.514;9.988;2023-02-05T09:06:20;5.07;;;2.50;;
14139;SDS011;7150;53.514;9.988;2023-02-05T09:08:46;5.17;;;2.60;;
14139;SDS011;7150;53.514;9.988;2023-02-05T09:11:11;3.57;;;2.23;;
14139;SDS011;7150;53.514;9.988;2023-02-05T09:13:37;3.50;;;2.27;;
14139;SDS011;7150;53.514;9.988;2023-02-05T09:16:03;3.47;;;2.43;;
14139;SDS011;7150;53.514;9.988;2023-02-05T09:18:28;5.53;;;2.50;;
14139;SDS011;7150;53.514;9.988;2023-02-05T09:20:54;3.73;;;2.47;;
14139;SDS011;7150;53.514;9.988;2023-02-05T09:23:20;4.03;;;2.67;;
14139;SDS011;7150;53.514;9.988;2023-02-05T09:25:46;3.93;;;2.63;;
14139;SDS011;7150;53.514;9.988;2023-02-05T09:28:12;6.43;;;2.40;;
14139;SDS011;7150;53.514;9.988;2023-02-05T09:30:39;4.23;;;2.60;;
14139;SDS011;7150;53.514;9.988;2023-02-05T09:33:07;4.63;;;2.57;;
14139;SDS011;7150;53.514;9.988;2023-02-05T09:35:33;4.83;;;2.50;;
14139;SDS011;7150;53.514;9.988;2023-02-05T09:38:00;4.17;;;2.60;;
14139;SDS011;7150;53.514;9.988;2023-02-05T09:40:31;4.40;;;2.23;;
14139;SDS011;7150;53.514;9.988;2023-02-05T09:43:04;5.33;;;2.60;;
14139;SDS011;7150;53.514;9.988;2023-02-05T09:45:57;3.97;;;2.30;;
14139;SDS011;7150;53.514;9.988;2023-02-05T09:51:07;3.33;;;2.40;;
14139;SDS011;7150;53.514;9.988;2023-02-05T09:53:36;4.37;;;2.70;;
14139;SDS011;7150;53.514;9.988;2023-02-05T09:56:06;4.17;;;2.40;;
14139;SDS011;7150;53.514;9.988;2023-02-05T09:58:33;5.30;;;2.60;;
14139;SDS011;7150;53.514;9.988;2023-02-05T10:01:11;7.73;;;2.87;;
14139;SDS011;7150;53.514;9.988;2023-02-05T10:03:44;5.00;;;3.30;;
14139;SDS011;7150;53.514;9.988;2023-02-05T10:06:22;4.07;;;2.33;;
14139;SDS011;7150;53.514;9.988;2023-02-05T10:23:10;7.37;;;3.07;;
14139;SDS011;7150;53.514;9.988;2023-02-05T10:25:54;4.53;;;2.30;;
14139;SDS011;7150;53.514;9.988;2023-02-05T10:28:48;4.43;;;2.80;;
14139;SDS011;7150;53.514;9.988;2023-02-05T10:34:09;3.20;;;2.37;;
14139;SDS011;7150;53.514;9.988;2023-02-05T10:36:42;3.27;;;2.40;;
14139;SDS011;7150;53.514;9.988;2023-02-05T10:39:14;4.17;;;2.40;;
14139;SDS011;7150;53.514;9.988;2023-02-05T10:41:42;3.40;;;2.60;;
14139;SDS011;7150;53.514;9.988;2023-02-05T10:44:13;3.57;;;2.77;;
14139;SDS011;7150;53.514;9.988;2023-02-05T10:46:48;6.27;;;2.47;;
14139;SDS011;7150;53.514;9.988;2023-02-05T10:49:20;4.73;;;2.90;;
14139;SDS011;7150;53.514;9.988;2023-02-05T10:51:50;5.00;;;2.50;;
14139;SDS011;7150;53.514;9.988;2023-02-05T10:54:30;4.10;;;2.70;;
14139;SDS011;7150;53.514;9.988;2023-02-05T10:56:57;8.17;;;3.10;;
14139;SDS011;7150;53.514;9.988;2023-02-05T10:59:28;5.17;;;2.90;;
14139;SDS011;7150;53.514;9.988;2023-02-05T11:01:56;2.87;;;2.23;;
14139;SDS011;7150;53.514;9.988;2023-02-05T11:07:22;4.43;;;2.93;;
14139;SDS011;7150;53.514;9.988;2023-02-05T11:09:52;4.60;;;2.90;;
14139;SDS011;7150;53.514;9.988;2023-02-05T11:12:28;3.43;;;2.60;;
14139;SDS011;7150;53.514;9.988;2023-02-05T11:14:58;4.47;;;2.70;;
14139;SDS011;7150;53.514;9.988;2023-02-05T11:17:28;4.17;;;2.53;;
14139;SDS011;7150;53.514;9.988;2023-02-05T11:22:35;3.40;;;2.57;;
14139;SDS011;7150;53.514;9.988;2023-02-05T11:25:04;3.90;;;2.50;;
14139;SDS011;7150;53.514;9.988;2023-02-05T11:27:36;3.10;;;2.30;;
14139;SDS011;7150;53.514;9.988;2023-02-05T11:32:50;3.87;;;2.50;;
14139;SDS011;7150;53.514;9.988;2023-02-05T11:35:20;3.60;;;2.70;;
14139;SDS011;7150;53.514;9.988;2023-02-05T11:40:35;3.00;;;2.40;;
14139;SDS011;7150;53.514;9.988;2023-02-05T11:43:03;4.67;;;2.67;;
14139;SDS011;7150;53.514;9.988;2023-02-05T11:45:32;4.50;;;2.63;;
14139;SDS011;7150;53.514;9.988;2023-02-05T11:48:00;3.93;;;2.50;;
14139;SDS011;7150;53.514;9.988;2023-02-05T11:50:28;3.30;;;2.80;;
14139;SDS011;7150;53.514;9.988;2023-02-05T11:53:04;5.23;;;2.67;;
14139;SDS011;7150;53.514;9.988;2023-02-05T11:55:32;3.70;;;2.50;;
14139;SDS011;7150;53.514;9.988;2023-02-05T11:58:04;3.07;;;2.33;;
14139;SDS011;7150;53.514;9.988;2023-02-05T12:00:31;5.17;;;2.67;;
14139;SDS011;7150;53.514;9.988;2023-02-05T12:03:05;5.73;;;2.87;;
14139;SDS011;7150;53.514;9.988;2023-02-05T12:05:43;3.37;;;2.40;;
14139;SDS011;7150;53.514;9.988;2023-02-05T12:08:23;4.90;;;2.47;;
14139;SDS011;7150;53.514;9.988;2023-02-05T12:19:22;4.23;;;2.93;;
14139;SDS011;7150;53.514;9.988;2023-02-05T12:21:58;4.73;;;2.20;;
14139;SDS011;7150;53.514;9.988;2023-02-05T12:29:59;3.77;;;2.50;;
14139;SDS011;7150;53.514;9.988;2023-02-05T12:33:09;4.47;;;2.80;;
14139;SDS011;7150;53.514;9.988;2023-02-05T12:36:02;4.00;;;2.57;;
14139;SDS011;7150;53.514;9.988;2023-02-05T12:39:02;3.67;;;2.43;;
14139;SDS011;7150;53.514;9.988;2023-02-05T12:41:59;4.00;;;2.40;;
14139;SDS011;7150;53.514;9.988;2023-02-05T12:44:50;5.47;;;2.60;;
14139;SDS011;7150;53.514;9.988;2023-02-05T12:47:40;6.57;;;2.93;;
14139;SDS011;7150;53.514;9.988;2023-02-05T12:53:32;3.97;;;2.43;;
14139;SDS011;7150;53.514;9.988;2023-02-05T12:56:20;3.77;;;2.30;;
14139;SDS011;7150;53.514;9.988;2023-02-05T12:59:32;3.77;;;2.60;;
14139;SDS011;7150;53.514;9.988;2023-02-05T13:01:59;3.67;;;2.27;;
14139;SDS011;7150;53.514;9.988;2023-02-05T13:04:36;2.90;;;1.97;;
14139;SDS011;7150;53.514;9.988;2023-02-05T13:07:09;3.87;;;2.30;;
14139;SDS011;7150;53.514;9.988;2023-02-05T13:12:59;4.20;;;2.67;;
14139;SDS011;7150;53.514;9.988;2023-02-05T13:15:30;4.57;;;2.47;;
14139;SDS011;7150;53.514;9.988;2023-02-05T13:18:09;2.80;;;2.33;;
14139;SDS011;7150;53.514;9.988;2023-02-05T13:20:42;4.67;;;2.60;;
14139;SDS011;7150;53.514;9.988;2023-02-05T13:23:31;2.83;;;2.10;;
14139;SDS011;7150;53.514;9.988;2023-02-05T13:26:29;3.50;;;2.30;;
14139;SDS011;7150;53.514;9.988;2023-02-05T13:29:18;4.33;;;2.60;;
14139;SDS011;7150;53.514;9.988;2023-02-05T13:31:50;5.70;;;2.70;;
14139;SDS011;7150;53.514;9.988;2023-02-05T13:34:20;4.97;;;2.27;;
14139;SDS011;7150;53.514;9.988;2023-02-05T13:45:50;3.57;;;2.50;;
14139;SDS011;7150;53.514;9.988;2023-02-05T13:51:35;4.10;;;2.73;;
14139;SDS011;7150;53.514;9.988;2023-02-05T13:54:26;3.90;;;2.50;;
14139;SDS011;7150;53.514;9.988;2023-02-05T13:57:06;3.67;;;2.67;;
14139;SDS011;7150;53.514;9.988;2023-02-05T13:59:46;3.50;;;2.13;;
14139;SDS011;7150;53.514;9.988;2023-02-05T14:02:36;3.27;;;2.77;;
14139;SDS011;7150;53.514;9.988;2023-02-05T14:05:03;4.73;;;3.13;;
14139;SDS011;7150;53.514;9.988;2023-02-05T14:07:31;3.37;;;2.33;;
14139;SDS011;7150;53.514;9.988;2023-02-05T14:10:00;5.63;;;2.80;;
14139;SDS011;7150;53.514;9.988;2023-02-05T14:12:28;4.27;;;2.97;;
14139;SDS011;7150;53.514;9.988;2023-02-05T14:22:56;4.07;;;2.80;;
14139;SDS011;7150;53.514;9.988;2023-02-05T14:25:43;5.10;;;2.70;;
14139;SDS011;7150;53.514;9.988;2023-02-05T14:30:51;5.63;;;2.70;;
14139;SDS011;7150;53.514;9.988;2023-02-05T14:33:27;4.83;;;2.67;;
14139;SDS011;7150;53.514;9.988;2023-02-05T14:35:56;5.60;;;2.77;;
14139;SDS011;7150;53.514;9.988;2023-02-05T14:38:45;4.77;;;3.13;;
14139;SDS011;7150;53.514;9.988;2023-02-05T14:41:29;8.33;;;2.83;;
14139;SDS011;7150;53.514;9.988;2023-02-05T14:49:20;4.53;;;2.90;;
14139;SDS011;7150;53.514;9.988;2023-02-05T14:52:02;5.23;;;3.13;;
14139;SDS011;7150;53.514;9.988;2023-02-05T14:59:38;3.23;;;2.47;;
14139;SDS011;7150;53.514;9.988;2023-02-05T15:05:14;4.80;;;2.90;;
14139;SDS011;7150;53.514;9.988;2023-02-05T15:07:46;6.37;;;3.63;;
14139;SDS011;7150;53.514;9.988;2023-02-05T15:10:15;4.30;;;2.77;;
14139;SDS011;7150;53.514;9.988;2023-02-05T15:12:54;5.03;;;3.30;;
14139;SDS011;7150;53.514;9.988;2023-02-05T15:15:33;5.83;;;3.50;;
14139;SDS011;7150;53.514;9.988;2023-02-05T15:18:04;4.07;;;2.97;;
14139;SDS011;7150;53.514;9.988;2023-02-05T15:20:38;5.27;;;3.00;;
14139;SDS011;7150;53.514;9.988;2023-02-05T15:23:29;6.80;;;2.77;;
14139;SDS011;7150;53.514;9.988;2023-02-05T15:26:06;4.33;;;2.83;;
14139;SDS011;7150;53.514;9.988;2023-02-05T15:28:39;5.10;;;2.93;;
14139;SDS011;7150;53.514;9.988;2023-02-05T15:31:18;4.30;;;2.87;;
14139;SDS011;7150;53.514;9.988;2023-02-05T15:36:33;6.47;;;3.20;;
14139;SDS011;7150;53.514;9.988;2023-02-05T15:39:12;5.83;;;3.37;;
14139;SDS011;7150;53.514;9.988;2023-02-05T15:41:44;6.03;;;2.60;;
14139;SDS011;7150;53.514;9.988;2023-02-05T15:47:03;4.50;;;2.87;;
14139;SDS011;7150;53.514;9.988;2023-02-05T15:49:39;9.07;;;4.10;;
14139;SDS011;7150;53.514;9.988;2023-02-05T15:52:14;8.10;;;3.83;;
14139;SDS011;7150;53.514;9.988;2023-02-05T15:54:42;5.00;;;2.97;;
14139;SDS011;7150;53.514;9.988;2023-02-05T15:57:12;5.63;;;3.80;;
14139;SDS011;7150;53.514;9.988;2023-02-05T15:59:43;6.40;;;3.40;;
14139;SDS011;7150;53.514;9.988;2023-02-05T16:02:19;5.10;;;3.10;;
14139;SDS011;7150;53.514;9.988;2023-02-05T16:04:56;6.57;;;3.00;;
14139;SDS011;7150;53.514;9.988;2023-02-05T16:07:24;4.03;;;3.07;;
14139;SDS011;7150;53.514;9.988;2023-02-05T16:09:52;6.83;;;3.50;;
14139;SDS011;7150;53.514;9.988;2023-02-05T16:12:20;3.93;;;2.80;;
14139;SDS011;7150;53.514;9.988;2023-02-05T16:14:56;4.77;;;2.97;;
14139;SDS011;7150;53.514;9.988;2023-02-05T16:20:11;4.30;;;3.20;;
14139;SDS011;7150;53.514;9.988;2023-02-05T16:22:51;7.20;;;3.70;;
14139;SDS011;7150;53.514;9.988;2023-02-05T16:25:35;4.73;;;2.80;;
14139;SDS011;7150;53.514;9.988;2023-02-05T16:28:09;7.20;;;3.90;;
14139;SDS011;7150;53.514;9.988;2023-02-05T16:30:48;5.13;;;3.37;;
14139;SDS011;7150;53.514;9.988;2023-02-05T16:33:23;7.33;;;3.50;;
14139;SDS011;7150;53.514;9.988;2023-02-05T16:35:56;6.97;;;3.10;;
14139;SDS011;7150;53.514;9.988;2023-02-05T16:38:25;7.27;;;3.43;;
14139;SDS011;7150;53.514;9.988;2023-02-05T16:40:52;7.67;;;4.03;;
14139;SDS011;7150;53.514;9.988;2023-02-05T16:53:56;14.80;;;8.07;;
14139;SDS011;7150;53.514;9.988;2023-02-05T16:56:23;9.80;;;5.60;;
14139;SDS011;7150;53.514;9.988;2023-02-05T16:58:52;11.80;;;5.40;;
14139;SDS011;7150;53.514;9.988;2023-02-05T17:01:21;8.30;;;4.97;;
14139;SDS011;7150;53.514;9.988;2023-02-05T17:03:51;6.97;;;4.00;;
14139;SDS011;7150;53.514;9.988;2023-02-05T17:06:18;9.33;;;4.30;;
14139;SDS011;7150;53.514;9.988;2023-02-05T17:08:54;6.90;;;3.83;;
14139;SDS011;7150;53.514;9.988;2023-02-05T17:11:39;9.40;;;4.40;;
14139;SDS011;7150;53.514;9.988;2023-02-05T17:16:40;6.47;;;3.93;;
14139;SDS011;7150;53.514;9.988;2023-02-05T17:19:20;5.80;;;3.90;;
14139;SDS011;7150;53.514;9.988;2023-02-05T17:22:15;6.90;;;4.10;;
14139;SDS011;7150;53.514;9.988;2023-02-05T17:24:37;8.00;;;4.37;;
14139;SDS011;7150;53.514;9.988;2023-02-05T17:27:03;10.63;;;4.53;;